createdAt,value
2022-12-06T00:00:46.116Z,67.93
2022-12-06T00:03:12.820Z,67.86
2022-12-06T00:05:43.214Z,68.35
2022-12-06T00:08:12.870Z,67.72
2022-12-06T00:10:39.619Z,67.82
2022-12-06T00:13:06.276Z,67.95
2022-12-06T00:15:36.436Z,67.68
2022-12-06T00:18:03.646Z,68.39
2022-12-06T00:20:30.300Z,67.59
2022-12-06T00:22:57.986Z,67.88
2022-12-06T00:25:24.673Z,68.38
2022-12-06T00:27:51.738Z,68.60
2022-12-06T00:30:18.631Z,67.92
2022-12-06T00:32:45.316Z,68.04
2022-12-06T00:35:11.928Z,68.05
2022-12-06T00:37:38.639Z,67.41
2022-12-06T00:40:05.921Z,67.59
2022-12-06T00:42:32.582Z,67.92
2022-12-06T00:44:59.206Z,68.42
2022-12-06T00:47:25.832Z,68.21
2022-12-06T00:49:52.764Z,67.63
2022-12-06T00:52:19.470Z,68.35
2022-12-06T00:54:46.432Z,68.05
2022-12-06T00:57:13.135Z,68.01
2022-12-06T00:59:39.709Z,67.42
2022-12-06T01:02:07.298Z,68.18
2022-12-06T01:04:34.097Z,67.97
2022-12-06T01:07:00.898Z,68.29
2022-12-06T01:09:30.827Z,68.34
2022-12-06T01:11:58.535Z,67.86
2022-12-06T01:14:25.577Z,67.70
2022-12-06T01:16:52.307Z,67.51
2022-12-06T01:19:19.012Z,67.63
2022-12-06T01:21:45.735Z,67.79
2022-12-06T01:24:12.468Z,67.81
2022-12-06T01:26:39.125Z,67.49
2022-12-06T01:29:05.907Z,67.31
2022-12-06T01:31:38.128Z,67.38
2022-12-06T01:34:07.199Z,67.19
2022-12-06T01:36:33.855Z,67.79
2022-12-06T01:39:04.930Z,67.79
2022-12-06T01:41:31.553Z,67.99
2022-12-06T01:43:58.201Z,67.67
2022-12-06T01:46:30.301Z,67.76
2022-12-06T01:49:21.236Z,68.12
2022-12-06T01:51:51.514Z,68.17
2022-12-06T01:54:20.509Z,67.93
2022-12-06T01:56:48.799Z,67.12
2022-12-06T01:59:15.986Z,67.93
2022-12-06T02:01:43.092Z,67.54
2022-12-06T02:04:09.885Z,67.84
2022-12-06T02:06:38.488Z,67.68
2022-12-06T02:09:07.662Z,67.85
2022-12-06T02:11:35.896Z,66.90
2022-12-06T02:14:10.214Z,67.29
2022-12-06T02:16:55.735Z,67.39
2022-12-06T02:19:34.744Z,67.98
2022-12-06T02:22:13.481Z,67.78
2022-12-06T02:25:03.547Z,68.01
2022-12-06T02:27:54.650Z,67.92
2022-12-06T02:30:44.653Z,67.80
2022-12-06T02:33:22.217Z,68.13
2022-12-06T02:36:15.363Z,68.25
2022-12-06T02:38:56.614Z,67.95
2022-12-06T02:41:42.143Z,67.43
2022-12-06T02:44:16.571Z,67.72
2022-12-06T02:46:44.061Z,68.23
2022-12-06T02:49:13.844Z,67.67
2022-12-06T02:51:41.442Z,67.51
2022-12-06T02:54:09.978Z,67.40
2022-12-06T02:56:36.690Z,67.46
2022-12-06T02:59:03.691Z,67.40
2022-12-06T03:01:34.539Z,67.77
2022-12-06T03:04:31.500Z,67.37
2022-12-06T03:07:36.327Z,67.25
2022-12-06T03:10:15.133Z,67.36
2022-12-06T03:12:47.884Z,67.13
2022-12-06T03:15:23.760Z,67.14
2022-12-06T03:18:01.338Z,67.20
2022-12-06T03:20:42.701Z,66.99
2022-12-06T03:23:13.767Z,66.96
2022-12-06T03:25:43.776Z,66.25
2022-12-06T03:28:13.951Z,66.99
2022-12-06T03:30:44.307Z,66.71
2022-12-06T03:33:12.928Z,66.97
2022-12-06T03:35:40.647Z,67.29
2022-12-06T03:38:11.608Z,66.93
2022-12-06T03:40:42.286Z,66.98
2022-12-06T03:43:10.199Z,67.20
2022-12-06T03:45:43.425Z,67.20
2022-12-06T03:48:18.688Z,66.86
2022-12-06T03:50:54.197Z,66.82
2022-12-06T03:53:24.985Z,67.04
2022-12-06T03:55:51.673Z,67.11
2022-12-06T03:58:18.395Z,66.47
2022-12-06T04:00:46.012Z,67.12
2022-12-06T04:03:12.688Z,67.14
2022-12-06T04:05:39.331Z,66.75
2022-12-06T04:08:06.114Z,66.64
2022-12-06T04:10:32.790Z,66.57
2022-12-06T04:13:00.810Z,67.05
2022-12-06T04:15:34.179Z,66.59
2022-12-06T04:18:13.726Z,66.97
2022-12-06T04:21:16.637Z,67.28
2022-12-06T04:23:46.383Z,66.34
2022-12-06T04:26:16.175Z,67.01
2022-12-06T04:29:01.424Z,67.39
2022-12-06T04:31:46.726Z,66.81
2022-12-06T04:34:33.387Z,66.92
2022-12-06T04:37:18.756Z,66.65
2022-12-06T04:39:45.479Z,66.80
2022-12-06T04:42:31.745Z,66.71
2022-12-06T04:44:58.708Z,66.89
2022-12-06T04:47:25.483Z,66.56
2022-12-06T04:49:52.273Z,66.91
2022-12-06T04:52:19.059Z,66.47
2022-12-06T04:54:47.115Z,66.69
2022-12-06T04:57:15.982Z,66.53
2022-12-06T04:59:44.248Z,66.14
2022-12-06T05:02:13.342Z,66.66
2022-12-06T05:04:40.043Z,66.23
2022-12-06T05:07:06.833Z,66.23
2022-12-06T05:09:33.548Z,66.02
2022-12-06T05:12:00.606Z,66.59
2022-12-06T05:14:27.293Z,65.81
2022-12-06T05:16:53.965Z,65.88
2022-12-06T05:19:20.658Z,65.70
2022-12-06T05:21:47.259Z,65.45
2022-12-06T05:24:14.257Z,65.76
2022-12-06T05:26:41.357Z,65.73
2022-12-06T05:29:08.320Z,66.19
2022-12-06T05:31:35.065Z,66.40
2022-12-06T05:34:01.849Z,65.48
2022-12-06T05:36:28.708Z,66.57
2022-12-06T05:38:56.457Z,65.66
2022-12-06T05:41:23.778Z,65.88
2022-12-06T05:43:50.620Z,66.10
2022-12-06T05:46:17.949Z,65.96
2022-12-06T05:48:44.804Z,66.12
2022-12-06T05:51:12.015Z,65.89
2022-12-06T05:53:39.412Z,66.15
2022-12-06T05:56:12.051Z,66.03
2022-12-06T05:58:39.480Z,66.46
2022-12-06T06:01:07.432Z,66.47
2022-12-06T06:03:35.155Z,66.44
2022-12-06T06:06:02.988Z,66.28
2022-12-06T06:08:30.049Z,66.84
2022-12-06T06:10:57.842Z,66.22
2022-12-06T06:13:24.564Z,66.39
2022-12-06T06:15:51.366Z,66.76
2022-12-06T06:18:19.308Z,66.41
2022-12-06T06:20:54.548Z,66.63
2022-12-06T06:23:21.881Z,66.91
2022-12-06T06:25:48.633Z,66.58
2022-12-06T06:28:16.069Z,66.68
2022-12-06T06:30:42.799Z,66.15
2022-12-06T06:33:09.923Z,66.05
2022-12-06T06:35:36.727Z,66.05
2022-12-06T06:38:04.171Z,66.11
2022-12-06T06:40:31.323Z,66.25
2022-12-06T06:42:58.370Z,67.04
2022-12-06T06:45:28.761Z,66.98
2022-12-06T06:47:55.852Z,66.57
2022-12-06T06:50:22.557Z,66.44
2022-12-06T06:52:49.216Z,66.64
2022-12-06T06:55:15.983Z,66.51
2022-12-06T06:57:42.636Z,66.54
2022-12-06T07:00:09.907Z,66.75
2022-12-06T07:02:39.411Z,66.70
2022-12-06T07:05:07.120Z,66.49
2022-12-06T07:07:33.806Z,66.25
2022-12-06T07:10:00.949Z,66.77
2022-12-06T07:12:27.734Z,66.05
2022-12-06T07:14:54.557Z,65.80
2022-12-06T07:17:21.269Z,65.88
2022-12-06T07:19:48.019Z,65.85
2022-12-06T07:22:14.740Z,65.94
2022-12-06T07:24:43.663Z,65.68
2022-12-06T07:27:12.421Z,66.11
2022-12-06T07:29:39.092Z,66.13
2022-12-06T07:32:06.184Z,66.15
2022-12-06T07:34:33.375Z,65.83
2022-12-06T07:37:00.024Z,65.54
2022-12-06T07:39:27.079Z,65.80
2022-12-06T07:42:12.404Z,65.84
2022-12-06T07:45:02.582Z,66.32
2022-12-06T07:47:42.408Z,66.00
2022-12-06T07:50:17.603Z,65.65
2022-12-06T07:52:45.754Z,65.55
2022-12-06T07:55:13.153Z,65.80
2022-12-06T07:57:43.787Z,66.04
2022-12-06T08:00:16.639Z,66.28
2022-12-06T08:02:43.387Z,66.05
2022-12-06T08:05:10.667Z,65.99
2022-12-06T08:07:37.744Z,65.76
2022-12-06T08:10:05.740Z,66.03
2022-12-06T08:12:32.806Z,65.81
2022-12-06T08:15:00.342Z,65.67
2022-12-06T08:17:27.959Z,65.86
2022-12-06T08:19:54.695Z,65.32
2022-12-06T08:22:21.360Z,65.37
2022-12-06T08:24:48.217Z,65.47
2022-12-06T08:27:14.909Z,64.91
2022-12-06T08:29:41.558Z,65.05
2022-12-06T08:32:08.377Z,64.72
2022-12-06T08:34:35.027Z,65.75
2022-12-06T08:37:03.462Z,64.73
2022-12-06T08:39:30.921Z,64.87
2022-12-06T08:42:02.747Z,65.02
2022-12-06T08:44:31.430Z,64.94
2022-12-06T08:47:00.418Z,64.46
2022-12-06T08:49:29.153Z,65.26
2022-12-06T08:51:56.357Z,64.76
2022-12-06T08:54:24.790Z,64.57
2022-12-06T08:56:52.006Z,64.56
2022-12-06T08:59:20.117Z,64.75
2022-12-06T09:01:47.222Z,64.32
2022-12-06T09:04:14.439Z,64.10
2022-12-06T09:06:43.919Z,63.62
2022-12-06T09:09:12.309Z,63.97
2022-12-06T09:11:40.116Z,63.22
2022-12-06T09:14:09.126Z,63.37
2022-12-06T09:16:36.368Z,62.90
2022-12-06T09:19:03.363Z,62.84
2022-12-06T09:21:30.575Z,62.66
2022-12-06T09:23:58.231Z,62.59
2022-12-06T09:26:25.632Z,62.57
2022-12-06T09:28:54.178Z,62.77
2022-12-06T09:31:21.254Z,62.22
2022-12-06T09:33:48.435Z,62.63
2022-12-06T09:36:29.014Z,61.73
2022-12-06T09:39:18.878Z,61.82
2022-12-06T09:42:05.649Z,61.92
2022-12-06T09:44:53.770Z,62.69
2022-12-06T09:47:48.042Z,62.44
2022-12-06T09:50:38.183Z,62.04
2022-12-06T09:53:19.155Z,62.39
2022-12-06T09:55:51.690Z,61.67
2022-12-06T09:58:39.532Z,60.92
2022-12-06T10:01:27.482Z,61.99
2022-12-06T10:04:06.138Z,61.67
2022-12-06T10:06:43.574Z,62.36
2022-12-06T10:09:32.307Z,62.16
2022-12-06T10:12:09.923Z,61.88
2022-12-06T10:15:09.165Z,62.02
2022-12-06T10:18:20.270Z,62.31
2022-12-06T10:21:21.937Z,62.69
2022-12-06T10:24:07.843Z,62.95
2022-12-06T10:26:46.690Z,63.19
2022-12-06T10:29:28.876Z,62.56
2022-12-06T10:32:32.723Z,62.30
2022-12-06T10:35:13.980Z,62.74
2022-12-06T10:38:05.132Z,62.34
2022-12-06T10:40:53.316Z,62.05
2022-12-06T10:43:32.288Z,62.62
2022-12-06T10:46:35.180Z,61.95
2022-12-06T10:49:13.443Z,61.93
2022-12-06T10:51:45.468Z,62.42
2022-12-06T10:54:26.544Z,62.74
2022-12-06T10:56:56.464Z,62.44
2022-12-06T10:59:31.435Z,63.00
2022-12-06T11:02:04.327Z,62.74
2022-12-06T11:04:36.717Z,62.38
2022-12-06T11:07:15.665Z,62.18
2022-12-06T11:09:44.248Z,62.23
2022-12-06T11:12:31.467Z,61.77
2022-12-06T11:15:22.388Z,62.25
2022-12-06T11:18:00.864Z,62.61
2022-12-06T11:20:34.215Z,62.28
2022-12-06T11:23:13.626Z,62.25
2022-12-06T11:25:55.475Z,62.96
2022-12-06T11:28:49.231Z,62.49
2022-12-06T11:31:26.835Z,63.00
2022-12-06T11:33:53.742Z,62.00
2022-12-06T11:36:21.624Z,62.04
2022-12-06T11:38:48.455Z,61.69
2022-12-06T11:41:27.706Z,62.01
2022-12-06T11:43:56.225Z,61.73
2022-12-06T11:46:24.315Z,61.20
2022-12-06T11:48:51.585Z,61.36
2022-12-06T11:51:24.429Z,61.23
2022-12-06T11:53:59.272Z,62.35
2022-12-06T11:56:30.139Z,61.55
2022-12-06T11:59:24.714Z,62.35
2022-12-06T12:01:54.322Z,62.02
2022-12-06T12:04:23.817Z,62.00
2022-12-06T12:07:00.024Z,62.17
2022-12-06T12:09:31.261Z,62.45
2022-12-06T12:12:15.808Z,62.04
2022-12-06T12:14:48.027Z,61.74
2022-12-06T12:17:22.959Z,61.20
2022-12-06T12:19:57.987Z,61.07
2022-12-06T12:22:27.684Z,60.78
2022-12-06T12:27:49.753Z,61.23
2022-12-06T12:30:16.442Z,61.07
2022-12-06T12:32:44.671Z,60.84
2022-12-06T12:35:37.347Z,61.07
2022-12-06T12:38:14.414Z,60.74
2022-12-06T12:40:57.140Z,60.64
2022-12-06T12:43:31.043Z,60.77
2022-12-06T12:46:10.006Z,59.99
2022-12-06T12:48:39.102Z,60.35
2022-12-06T12:51:19.107Z,60.18
2022-12-06T12:53:46.064Z,60.24
2022-12-06T12:56:21.138Z,60.43
2022-12-06T12:58:51.304Z,60.28
2022-12-06T13:01:26.872Z,59.97
2022-12-06T13:04:10.858Z,60.90
2022-12-06T13:06:50.924Z,60.11
2022-12-06T13:09:30.977Z,59.93
2022-12-06T13:12:24.987Z,60.37
2022-12-06T13:14:58.553Z,60.33
2022-12-06T13:17:26.955Z,60.00
2022-12-06T13:19:53.832Z,60.18
2022-12-06T13:22:28.045Z,59.39
2022-12-06T13:25:04.736Z,59.51
2022-12-06T13:27:37.424Z,59.74
2022-12-06T13:30:13.737Z,60.16
2022-12-06T13:32:58.444Z,60.18
2022-12-06T13:35:31.678Z,59.89
2022-12-06T13:38:25.923Z,60.57
2022-12-06T13:40:55.480Z,60.12
2022-12-06T13:43:24.773Z,60.50
2022-12-06T13:45:51.442Z,60.58
2022-12-06T13:48:24.298Z,59.95
2022-12-06T13:50:54.924Z,60.33
2022-12-06T13:53:24.137Z,60.73
2022-12-06T13:56:22.586Z,61.04
2022-12-06T13:58:51.031Z,61.32
2022-12-06T14:01:40.094Z,61.20
2022-12-06T14:09:41.326Z,61.33
2022-12-06T14:12:23.315Z,62.13
2022-12-06T14:15:01.645Z,62.11
2022-12-06T14:20:30.310Z,62.30
2022-12-06T14:22:57.107Z,61.81
2022-12-06T14:25:28.308Z,61.89
2022-12-06T14:28:13.606Z,61.88
2022-12-06T14:30:44.454Z,61.85
2022-12-06T14:33:21.971Z,62.01
2022-12-06T14:35:51.646Z,61.71
2022-12-06T14:38:28.007Z,61.91
2022-12-06T14:41:14.098Z,61.83
2022-12-06T14:43:42.392Z,61.58
2022-12-06T14:46:15.315Z,62.04
2022-12-06T14:49:02.942Z,62.05
2022-12-06T14:51:40.744Z,62.06
2022-12-06T14:54:26.715Z,62.78
2022-12-06T14:56:53.876Z,62.17
2022-12-06T14:59:46.138Z,62.64
2022-12-06T15:02:26.237Z,63.47
2022-12-06T15:04:53.369Z,63.05
2022-12-06T15:07:31.821Z,63.48
2022-12-06T15:10:25.473Z,63.87
2022-12-06T15:12:55.531Z,63.69
2022-12-06T15:15:38.951Z,63.93
2022-12-06T15:18:13.473Z,63.99
2022-12-06T15:20:40.401Z,63.86
2022-12-06T15:23:19.104Z,63.87
2022-12-06T15:25:45.741Z,63.76
2022-12-06T15:28:16.854Z,63.20
2022-12-06T15:30:46.321Z,63.67
2022-12-06T15:33:21.393Z,63.92
2022-12-06T15:35:48.648Z,63.67
2022-12-06T15:38:18.076Z,63.94
2022-12-06T15:40:48.737Z,64.16
2022-12-06T15:43:35.909Z,64.35
2022-12-06T15:46:05.446Z,63.90
2022-12-06T15:48:37.448Z,64.18
2022-12-06T15:51:09.314Z,64.85
2022-12-06T15:53:37.417Z,64.67
2022-12-06T15:56:04.388Z,64.51
2022-12-06T15:58:31.018Z,64.50
2022-12-06T16:00:58.966Z,64.71
2022-12-06T16:03:26.107Z,64.75
2022-12-06T16:05:52.977Z,64.59
2022-12-06T16:08:19.926Z,64.53
2022-12-06T16:11:11.439Z,65.08
2022-12-06T16:13:33.667Z,64.82
2022-12-06T16:16:00.617Z,65.33
2022-12-06T16:18:27.892Z,65.16
2022-12-06T16:20:55.335Z,65.08
2022-12-06T16:24:11.793Z,65.42
2022-12-06T16:26:45.009Z,65.49
2022-12-06T16:29:23.123Z,65.12
2022-12-06T16:31:51.133Z,65.43
2022-12-06T16:34:18.484Z,65.35
2022-12-06T16:36:56.027Z,65.45
2022-12-06T16:39:22.922Z,65.30
2022-12-06T16:41:49.868Z,65.14
2022-12-06T16:44:16.777Z,65.18
2022-12-06T16:46:44.498Z,65.57
2022-12-06T16:52:08.775Z,65.37
2022-12-06T16:54:35.980Z,64.53
2022-12-06T16:57:02.854Z,65.20
2022-12-06T16:59:29.665Z,64.80
2022-12-06T17:01:56.490Z,64.70
2022-12-06T17:04:23.358Z,64.93
2022-12-06T17:06:50.311Z,65.21
2022-12-06T17:09:17.259Z,64.90
2022-12-06T17:12:02.919Z,64.53
2022-12-06T17:14:30.181Z,65.43
2022-12-06T17:16:59.176Z,64.82
2022-12-06T17:19:28.074Z,65.24
2022-12-06T17:21:55.649Z,64.74
2022-12-06T17:24:25.045Z,65.12
2022-12-06T17:26:54.058Z,64.63
2022-12-06T17:29:21.113Z,64.50
2022-12-06T17:31:47.813Z,64.03
2022-12-06T17:34:15.190Z,64.25
2022-12-06T17:36:42.901Z,64.09
2022-12-06T17:39:11.344Z,64.16
2022-12-06T17:41:56.667Z,63.94
2022-12-06T17:44:23.442Z,64.06
2022-12-06T17:46:50.288Z,64.23
2022-12-06T17:49:19.967Z,64.14
2022-12-06T17:51:47.484Z,64.51
2022-12-06T17:54:15.215Z,64.15
2022-12-06T17:56:50.720Z,64.82
2022-12-06T17:59:20.931Z,65.39
2022-12-06T18:04:36.180Z,64.87
2022-12-06T18:07:02.840Z,64.96
2022-12-06T18:09:29.548Z,65.18
2022-12-06T18:11:56.222Z,65.59
2022-12-06T18:14:22.976Z,65.47
2022-12-06T18:16:49.733Z,64.78
2022-12-06T18:19:18.950Z,65.22
2022-12-06T18:21:46.862Z,65.35
2022-12-06T18:24:25.643Z,64.89
2022-12-06T18:26:54.520Z,64.17
2022-12-06T18:29:23.441Z,64.76
2022-12-06T18:31:51.019Z,65.32
2022-12-06T18:34:18.670Z,64.95
2022-12-06T18:36:45.893Z,64.70
2022-12-06T18:39:24.056Z,64.35
2022-12-06T18:41:52.559Z,63.20
2022-12-06T18:44:19.387Z,63.38
2022-12-06T18:46:46.155Z,64.14
2022-12-06T18:49:13.588Z,64.95
2022-12-06T18:51:40.521Z,64.82
2022-12-06T18:54:08.390Z,65.17
2022-12-06T18:56:36.301Z,64.57
2022-12-06T18:59:05.712Z,64.58
2022-12-06T19:01:34.505Z,65.12
2022-12-06T19:04:03.601Z,65.31
2022-12-06T19:06:33.094Z,64.68
2022-12-06T19:09:03.692Z,64.93
2022-12-06T19:11:30.798Z,65.84
2022-12-06T19:13:59.980Z,65.58
2022-12-06T19:16:29.808Z,65.09
2022-12-06T19:18:58.806Z,65.45
2022-12-06T19:21:26.587Z,65.55
2022-12-06T19:23:57.428Z,65.86
2022-12-06T19:26:25.744Z,65.28
2022-12-06T19:28:52.874Z,65.48
2022-12-06T19:31:22.817Z,65.50
2022-12-06T19:33:51.014Z,65.64
2022-12-06T19:36:27.719Z,65.85
2022-12-06T19:38:59.330Z,65.95
2022-12-06T19:41:26.588Z,65.88
2022-12-06T19:44:11.984Z,65.68
2022-12-06T19:46:40.894Z,65.79
2022-12-06T19:49:07.718Z,65.96
2022-12-06T19:51:36.660Z,65.44
2022-12-06T19:54:04.446Z,66.43
2022-12-06T19:56:31.372Z,65.73
2022-12-06T19:58:58.923Z,66.12
2022-12-06T20:01:29.976Z,66.23
2022-12-06T20:03:57.193Z,65.94
2022-12-06T20:06:26.546Z,66.24
2022-12-06T20:08:55.983Z,65.52
2022-12-06T20:11:42.430Z,66.25
2022-12-06T20:14:15.340Z,65.94
2022-12-06T20:16:43.320Z,66.13
2022-12-06T20:19:11.648Z,65.81
2022-12-06T20:21:38.562Z,66.53
2022-12-06T20:24:05.460Z,66.19
2022-12-06T20:26:32.675Z,66.78
2022-12-06T20:29:00.045Z,66.33
2022-12-06T20:31:29.776Z,66.21
2022-12-06T20:34:03.528Z,65.98
2022-12-06T20:36:31.829Z,66.82
2022-12-06T20:38:59.860Z,66.49
2022-12-06T20:41:33.096Z,66.83
2022-12-06T20:44:02.176Z,66.82
2022-12-06T20:46:31.277Z,66.63
2022-12-06T20:49:03.604Z,66.16
2022-12-06T20:51:31.888Z,66.86
2022-12-06T20:54:01.741Z,66.40
2022-12-06T20:56:32.510Z,66.91
2022-12-06T20:59:01.103Z,66.81
2022-12-06T21:01:34.594Z,66.16
2022-12-06T21:04:01.340Z,66.09
2022-12-06T21:06:28.038Z,66.44
2022-12-06T21:08:55.259Z,66.73
2022-12-06T21:11:24.299Z,66.32
2022-12-06T21:13:53.407Z,66.94
2022-12-06T21:16:26.818Z,66.67
2022-12-06T21:18:57.692Z,66.92
2022-12-06T21:21:30.281Z,66.72
2022-12-06T21:24:05.918Z,67.05
2022-12-06T21:26:33.447Z,66.88
2022-12-06T21:29:00.214Z,65.85
2022-12-06T21:31:33.030Z,65.75
2022-12-06T21:34:00.239Z,65.17
2022-12-06T21:36:27.343Z,64.76
2022-12-06T21:38:55.633Z,66.20
2022-12-06T21:41:22.769Z,65.84
2022-12-06T21:43:49.950Z,66.25
2022-12-06T21:46:22.957Z,66.34
2022-12-06T21:49:00.260Z,66.47
2022-12-06T21:51:30.188Z,66.40
2022-12-06T21:53:57.488Z,66.13
2022-12-06T21:56:29.313Z,66.58
2022-12-06T21:58:56.621Z,66.13
2022-12-06T22:01:27.795Z,66.67
2022-12-06T22:03:58.389Z,66.67
2022-12-06T22:06:25.463Z,66.19
2022-12-06T22:09:03.635Z,66.37
2022-12-06T22:11:30.844Z,65.90
2022-12-06T22:13:59.525Z,65.59
2022-12-06T22:16:27.438Z,66.21
2022-12-06T22:18:55.175Z,66.21
2022-12-06T22:21:28.603Z,66.37
2022-12-06T22:23:58.036Z,66.40
2022-12-06T22:26:28.387Z,66.21
2022-12-06T22:28:55.796Z,66.27
2022-12-06T22:31:25.448Z,66.14
2022-12-06T22:33:52.627Z,66.31
2022-12-06T22:36:21.092Z,65.96
2022-12-06T22:38:49.950Z,65.51
2022-12-06T22:41:17.325Z,65.37
2022-12-06T22:43:44.186Z,64.58
2022-12-06T22:46:13.497Z,64.42
2022-12-06T22:48:41.365Z,64.87
2022-12-06T22:51:16.906Z,64.42
2022-12-06T22:53:48.810Z,64.26
2022-12-06T22:56:15.625Z,63.73
2022-12-06T22:58:42.564Z,63.84
2022-12-06T23:01:20.748Z,64.17
2022-12-06T23:03:50.371Z,65.49
2022-12-06T23:06:19.391Z,64.89
2022-12-06T23:08:46.520Z,64.87
2022-12-06T23:11:15.020Z,64.90
2022-12-06T23:13:42.319Z,64.79
2022-12-06T23:16:15.839Z,64.47
2022-12-06T23:18:42.799Z,64.19
2022-12-06T23:21:13.970Z,64.74
2022-12-06T23:23:43.062Z,65.53
2022-12-06T23:26:15.492Z,65.32
2022-12-06T23:28:42.724Z,65.64
2022-12-06T23:31:15.493Z,64.73
2022-12-06T23:33:43.708Z,64.96
2022-12-06T23:36:13.577Z,65.86
2022-12-06T23:38:40.667Z,65.73
2022-12-06T23:41:09.640Z,65.67
2022-12-06T23:43:37.036Z,65.47
2022-12-06T23:46:07.650Z,65.84
2022-12-06T23:48:35.823Z,65.38
2022-12-06T23:51:14.312Z,65.16
2022-12-06T23:53:42.594Z,64.69
2022-12-06T23:56:12.549Z,64.95
2022-12-06T23:58:40.063Z,64.23
